Time;durP1;ratioP1;P1;durP2;ratioP2;P2;SDS_P1;SDS_P2;PMS_P1;PMS_P2;Temp;Humidity;BMP_temperature;BMP_pressure;BME280_temperature;BME280_humidity;BME280_pressure;Samples;Min_cycle;Max_cycle;Signal;HPM_P1;HPM_P2
2023/09/11 00:02:17;;;;;;;19.33;17.40;;;;;;;18.18;98.58;100997.94;5016039;28;20472;-79
2023/09/11 00:04:46;;;;;;;23.40;18.97;;;;;;;18.23;98.25;100985.16;5026112;28;20513;-80
2023/09/11 00:07:16;;;;;;;20.93;18.83;;;;;;;18.20;98.11;100995.78;5016401;28;20438;-78
2023/09/11 00:09:46;;;;;;;22.10;19.33;;;;;;;18.18;98.37;100993.28;5020757;28;20418;-81
2023/09/11 00:12:18;;;;;;;22.97;20.37;;;;;;;18.15;98.48;101003.91;5022162;28;20412;-82
2023/09/11 00:14:47;;;;;;;20.90;18.90;;;;;;;18.09;98.87;100988.47;5022173;28;20404;-82
2023/09/11 00:17:17;;;;;;;20.70;18.70;;;;;;;18.02;98.87;100993.28;5016228;28;20565;-82
2023/09/11 00:19:46;;;;;;;21.27;19.20;;;;;;;17.96;98.75;100986.09;5010609;28;20462;-83
2023/09/11 00:22:15;;;;;;;19.93;17.93;;;;;;;17.90;98.94;100992.53;5009318;28;20938;-82
2023/09/11 00:24:46;;;;;;;28.00;22.00;;;;;;;17.85;98.78;100984.25;5004104;28;20464;-83
2023/09/11 00:27:16;;;;;;;19.60;17.77;;;;;;;17.85;99.21;100978.75;5003320;28;20470;-82
2023/09/11 00:29:45;;;;;;;23.10;20.63;;;;;;;17.83;99.19;100980.91;5003772;28;20498;-81
2023/09/11 00:32:14;;;;;;;22.00;19.80;;;;;;;17.80;99.68;100976.78;5006815;28;20714;-83
2023/09/11 00:34:43;;;;;;;26.60;21.30;;;;;;;17.77;99.94;100971.78;5009496;28;20435;-82
2023/09/11 00:37:12;;;;;;;26.40;20.40;;;;;;;17.88;100.00;100975.53;5002157;28;20827;-82
2023/09/11 00:39:41;;;;;;;22.43;20.30;;;;;;;17.94;100.00;100971.81;5007687;28;20440;-82
2023/09/11 00:42:12;;;;;;;23.23;20.93;;;;;;;17.81;100.00;100973.75;5007158;28;21002;-82
2023/09/11 00:44:42;;;;;;;21.83;19.80;;;;;;;17.89;100.00;100966.22;5003521;28;20443;-81
2023/09/11 00:47:13;;;;;;;23.43;21.17;;;;;;;17.98;100.00;100972.97;5005376;28;20485;-81
2023/09/11 00:49:42;;;;;;;24.60;22.40;;;;;;;18.08;100.00;100970.38;5003420;28;20442;-81
2023/09/11 00:52:12;;;;;;;25.23;22.50;;;;;;;18.09;100.00;100967.41;5003603;28;20397;-82
2023/09/11 00:54:42;;;;;;;26.13;23.07;;;;;;;17.97;100.00;100954.84;5004253;28;20418;-81
2023/09/11 00:57:11;;;;;;;27.77;24.73;;;;;;;17.98;100.00;100962.00;5012309;28;20436;-81
2023/09/11 00:59:44;;;;;;;25.90;23.60;;;;;;;17.93;100.00;100954.53;5011104;28;20449;-80
2023/09/11 01:02:15;;;;;;;26.17;23.40;;;;;;;17.92;100.00;100952.03;5007214;28;20480;-81
2023/09/11 01:04:45;;;;;;;28.60;25.53;;;;;;;17.76;100.00;100949.06;5012567;28;20448;-79
2023/09/11 01:07:17;;;;;;;25.80;23.30;;;;;;;17.74;100.00;100945.75;5018959;28;20437;-79
2023/09/11 01:09:46;;;;;;;31.03;25.97;;;;;;;17.80;100.00;100952.97;5018776;28;20419;-80
2023/09/11 01:12:17;;;;;;;27.80;25.20;;;;;;;17.76;100.00;100942.78;5038873;28;20420;-81
2023/09/11 01:14:46;;;;;;;27.33;24.30;;;;;;;17.78;100.00;100941.44;5008453;28;20472;-81
2023/09/11 01:17:28;;;;;;;29.50;26.53;;;;;;;17.79;100.00;100940.34;5004016;28;20466;-82
2023/09/11 01:20:22;;;;;;;27.33;24.20;;;;;;;17.82;100.00;100944.50;4990812;28;20397;-81
2023/09/11 01:23:17;;;;;;;28.23;25.30;;;;;;;17.74;100.00;100940.28;5006514;28;20458;-81
2023/09/11 01:26:06;;;;;;;29.13;24.87;;;;;;;17.74;100.00;100940.28;4991746;28;20417;-82
2023/09/11 01:29:11;;;;;;;27.17;24.57;;;;;;;17.70;100.00;100939.13;4997427;28;20412;-81
2023/09/11 01:31:43;;;;;;;26.37;23.83;;;;;;;17.66;100.00;100943.44;4999549;28;20411;-81
2023/09/11 01:34:13;;;;;;;24.00;21.80;;;;;;;17.63;100.00;100938.44;5006876;28;20445;-82
2023/09/11 01:36:43;;;;;;;24.50;22.00;;;;;;;17.60;100.00;100940.84;5006379;28;20475;-80
2023/09/11 01:39:13;;;;;;;27.30;24.80;;;;;;;17.66;100.00;100931.66;4997872;28;21153;-82
2023/09/11 01:41:44;;;;;;;24.90;22.53;;;;;;;17.61;100.00;100932.41;4997391;28;20971;-81
2023/09/11 01:44:22;;;;;;;25.07;22.73;;;;;;;17.51;100.00;100925.88;4999647;28;20673;-82
2023/09/11 01:46:54;;;;;;;25.10;22.70;;;;;;;17.36;100.00;100929.16;4996215;28;20453;-81
2023/09/11 01:49:25;;;;;;;25.43;23.00;;;;;;;17.26;100.00;100927.06;5001457;28;20449;-81
2023/09/11 01:51:55;;;;;;;26.20;23.73;;;;;;;17.25;100.00;100922.69;4991175;28;20446;-80
2023/09/11 01:54:28;;;;;;;25.57;23.17;;;;;;;17.38;100.00;100918.78;5008467;28;20430;-81
2023/09/11 01:56:58;;;;;;;25.30;22.90;;;;;;;17.36;100.00;100921.78;5006222;28;20425;-81
2023/09/11 02:00:16;;;;;;;25.87;23.33;;;;;;;17.49;100.00;100915.16;4988411;28;20417;-81
2023/09/11 02:03:16;;;;;;;26.30;23.80;;;;;;;17.56;100.00;100918.59;4948557;28;20476;-81
2023/09/11 02:05:46;;;;;;;25.80;23.37;;;;;;;17.64;100.00;100918.22;4944739;28;20450;-83
2023/09/11 02:08:15;;;;;;;25.83;23.33;;;;;;;17.62;100.00;100917.59;4962118;28;20497;-83
2023/09/11 02:10:44;;;;;;;25.87;23.67;;;;;;;17.52;100.00;100909.22;4950525;28;20515;-79
2023/09/11 02:13:13;;;;;;;27.03;24.40;;;;;;;17.33;100.00;100907.78;4946189;28;20439;-80
2023/09/11 02:15:42;;;;;;;28.10;25.60;;;;;;;17.29;100.00;100914.81;4950491;28;20479;-81
2023/09/11 02:18:11;;;;;;;25.07;22.87;;;;;;;17.38;100.00;100910.59;4953399;28;20436;-81
2023/09/11 02:20:47;;;;;;;26.17;23.70;;;;;;;17.43;100.00;100910.69;4962725;28;20842;-81
2023/09/11 02:23:17;;;;;;;25.20;22.73;;;;;;;17.45;100.00;100916.75;5005633;28;21043;-81
2023/09/11 02:25:47;;;;;;;25.80;23.13;;;;;;;17.39;100.00;100909.53;5015044;28;20520;-80
2023/09/11 02:28:17;;;;;;;25.03;22.70;;;;;;;17.32;100.00;100906.13;5001063;28;20430;-80
2023/09/11 02:30:47;;;;;;;25.70;23.07;;;;;;;17.19;100.00;100914.63;5005976;28;20408;-80
2023/09/11 02:33:16;;;;;;;27.17;24.50;;;;;;;17.16;100.00;100912.38;5003404;28;20408;-81
2023/09/11 02:35:52;;;;;;;25.90;23.67;;;;;;;17.09;100.00;100911.72;4998009;28;20561;-79
2023/09/11 02:38:21;;;;;;;28.53;25.53;;;;;;;17.04;100.00;100922.56;4995632;28;20414;-80
2023/09/11 02:40:50;;;;;;;28.67;25.77;;;;;;;16.93;100.00;100916.06;4994917;28;20431;-82
2023/09/11 02:43:36;;;;;;;26.07;23.77;;;;;;;16.85;100.00;100914.50;5006527;28;20721;-81
2023/09/11 02:46:06;;;;;;;29.00;26.00;;;;;;;16.81;100.00;100916.09;4995650;28;20501;-81
2023/09/11 02:48:35;;;;;;;26.80;24.33;;;;;;;16.83;100.00;100916.69;4987336;28;20496;-82
2023/09/11 02:51:05;;;;;;;26.80;24.10;;;;;;;16.90;100.00;100911.88;5002535;28;20913;-81
2023/09/11 02:53:35;;;;;;;28.23;25.40;;;;;;;16.95;100.00;100913.88;5006668;28;20409;-80
2023/09/11 02:56:04;;;;;;;29.57;25.80;;;;;;;16.92;100.00;100911.66;5001205;28;20507;-80
2023/09/11 02:58:33;;;;;;;31.30;25.90;;;;;;;16.99;100.00;100908.78;5024173;28;20447;-80
2023/09/11 03:01:05;;;;;;;26.87;24.43;;;;;;;17.06;100.00;100912.19;5016854;28;20481;-78
2023/09/11 03:08:00;;;;;;;27.83;25.23;;;;;;;16.71;100.00;100907.66;5008609;28;20488;-80
2023/09/11 03:10:45;;;;;;;29.93;27.13;;;;;;;16.67;100.00;100903.78;5014357;28;20421;-79
2023/09/11 03:22:22;;;;;;;27.33;24.80;;;;;;;16.77;100.00;100903.97;5009097;28;20432;-81
2023/09/11 03:25:53;;;;;;;27.23;24.67;;;;;;;16.87;100.00;100906.91;5006096;28;20526;-82
2023/09/11 03:28:23;;;;;;;31.03;27.77;;;;;;;16.91;100.00;100902.63;5010524;28;20429;-81
2023/09/11 03:30:52;;;;;;;28.47;25.97;;;;;;;16.83;100.00;100905.75;5010471;28;20408;-80
2023/09/11 03:33:23;;;;;;;26.77;24.33;;;;;;;16.76;100.00;100905.03;5013874;28;20425;-80
2023/09/11 03:35:52;;;;;;;26.90;24.30;;;;;;;16.79;100.00;100903.75;5005752;28;20428;-79
2023/09/11 03:38:22;;;;;;;29.30;23.80;;;;;;;16.86;100.00;100910.72;5009942;28;20420;-79
2023/09/11 03:41:04;;;;;;;27.87;25.30;;;;;;;16.83;100.00;100900.28;5008305;28;20401;-79
2023/09/11 03:43:33;;;;;;;28.80;26.10;;;;;;;16.76;100.00;100901.47;5008547;28;20401;-80
2023/09/11 03:46:02;;;;;;;25.63;23.30;;;;;;;16.72;100.00;100895.69;5008918;28;20471;-79
2023/09/11 03:48:32;;;;;;;26.70;24.03;;;;;;;16.66;100.00;100899.38;5009375;28;20442;-78
2023/09/11 03:51:02;;;;;;;25.40;22.87;;;;;;;16.62;100.00;100892.72;5010197;28;20434;-80
2023/09/11 03:53:31;;;;;;;25.50;22.97;;;;;;;16.50;100.00;100884.56;5018426;28;20420;-79
2023/09/11 03:56:03;;;;;;;25.90;23.10;;;;;;;16.45;100.00;100878.16;5009804;28;20414;-79
2023/09/11 03:58:32;;;;;;;26.03;23.23;;;;;;;16.63;100.00;100888.09;5020585;28;20460;-79
2023/09/11 04:01:01;;;;;;;24.83;22.57;;;;;;;16.66;100.00;100888.44;5010052;28;20440;-79
2023/09/11 04:03:32;;;;;;;24.33;21.90;;;;;;;16.49;100.00;100882.88;5009893;28;20517;-79
2023/09/11 04:06:03;;;;;;;26.07;23.43;;;;;;;16.52;100.00;100884.28;5003419;28;20484;-78
2023/09/11 04:08:32;;;;;;;26.03;23.63;;;;;;;16.45;100.00;100889.06;5014104;28;20434;-80
2023/09/11 04:11:02;;;;;;;26.43;23.37;;;;;;;16.32;100.00;100881.97;5008921;28;20414;-79
2023/09/11 04:13:31;;;;;;;25.33;22.80;;;;;;;16.25;100.00;100885.91;5013699;28;20441;-80
2023/09/11 04:16:00;;;;;;;27.80;25.10;;;;;;;16.21;100.00;100887.44;5002646;28;20469;-80
2023/09/11 04:18:29;;;;;;;29.20;24.73;;;;;;;16.23;100.00;100883.41;5012791;28;20422;-81
2023/09/11 04:21:03;;;;;;;23.83;21.50;;;;;;;16.32;100.00;100892.03;5010284;28;20425;-79
2023/09/11 04:23:33;;;;;;;24.67;22.37;;;;;;;16.35;100.00;100886.13;5011497;28;20462;-80
2023/09/11 04:26:06;;;;;;;27.67;24.87;;;;;;;16.45;100.00;100880.88;5020738;28;20504;-80
2023/09/11 04:28:37;;;;;;;28.37;25.60;;;;;;;16.33;100.00;100874.59;5006144;28;20434;-80
2023/09/11 04:31:07;;;;;;;24.83;22.30;;;;;;;16.33;100.00;100880.06;5017466;28;20459;-80
2023/09/11 04:33:36;;;;;;;30.57;26.43;;;;;;;16.39;100.00;100879.94;5001848;28;20444;-81
2023/09/11 04:36:06;;;;;;;29.23;24.97;;;;;;;16.39;100.00;100881.84;5004663;28;20463;-80
2023/09/11 04:38:36;;;;;;;25.50;23.07;;;;;;;16.47;100.00;100882.28;5006565;28;20409;-81
2023/09/11 04:41:06;;;;;;;26.53;23.10;;;;;;;16.51;100.00;100878.00;5007643;28;20528;-83
2023/09/11 04:43:35;;;;;;;27.47;24.80;;;;;;;16.68;100.00;100880.84;5002306;28;20438;-81
2023/09/11 04:46:05;;;;;;;29.40;26.50;;;;;;;16.62;100.00;100880.97;5004055;28;20477;-81
2023/09/11 04:48:34;;;;;;;28.63;25.20;;;;;;;16.58;100.00;100885.22;5008201;28;20414;-80
2023/09/11 04:51:03;;;;;;;28.10;25.43;;;;;;;16.52;100.00;100889.75;5021676;28;20410;-80
2023/09/11 04:53:33;;;;;;;25.77;23.20;;;;;;;16.85;100.00;100897.28;5014244;28;20404;-82
2023/09/11 04:56:02;;;;;;;25.37;22.90;;;;;;;16.74;100.00;100889.97;4993374;28;20464;-80
2023/09/11 04:58:33;;;;;;;26.93;24.47;;;;;;;16.83;100.00;100893.97;4996617;28;21168;-81
2023/09/11 05:01:04;;;;;;;30.93;26.13;;;;;;;16.95;100.00;100895.59;5003126;28;20445;-80
2023/09/11 05:03:33;;;;;;;31.60;26.50;;;;;;;16.99;100.00;100887.75;4997463;28;20454;-81
2023/09/11 05:06:04;;;;;;;31.27;25.70;;;;;;;17.45;100.00;100892.13;4996775;28;20550;-81
2023/09/11 05:08:36;;;;;;;26.93;24.33;;;;;;;17.68;99.10;100883.78;5010340;28;20483;-79
2023/09/11 05:11:26;;;;;;;30.30;27.23;;;;;;;17.51;99.78;100888.41;5016914;28;20447;-79
2023/09/11 05:13:58;;;;;;;26.80;24.27;;;;;;;17.44;100.00;100885.00;4999845;28;20413;-81
2023/09/11 05:16:28;;;;;;;36.63;26.20;;;;;;;17.33;100.00;100883.97;5002786;28;20531;-81
2023/09/11 05:18:58;;;;;;;30.93;26.83;;;;;;;17.31;100.00;100890.78;5008712;28;20434;-82
2023/09/11 05:21:27;;;;;;;31.83;27.17;;;;;;;17.27;100.00;100887.72;4994907;28;20421;-81
2023/09/11 05:23:56;;;;;;;29.60;26.47;;;;;;;17.35;100.00;100892.78;5001660;28;20427;-81
2023/09/11 05:26:26;;;;;;;27.13;24.37;;;;;;;17.42;100.00;100892.63;5003730;28;20528;-82
2023/09/11 05:28:55;;;;;;;29.13;25.90;;;;;;;17.53;100.00;100893.59;5020675;28;20482;-79
2023/09/11 05:31:26;;;;;;;28.90;26.13;;;;;;;17.65;100.00;100889.78;5010794;28;20402;-79
2023/09/11 05:33:55;;;;;;;28.07;25.17;;;;;;;17.72;99.72;100898.63;5023484;28;20404;-80
2023/09/11 05:36:25;;;;;;;28.03;24.87;;;;;;;17.84;99.02;100897.72;5018855;28;20442;-81
2023/09/11 05:38:54;;;;;;;29.47;26.57;;;;;;;18.02;97.05;100891.97;5004241;28;20463;-79
2023/09/11 05:41:25;;;;;;;37.70;25.07;;;;;;;18.18;95.91;100891.13;5016316;28;20422;-79
2023/09/11 05:43:55;;;;;;;38.13;28.00;;;;;;;18.20;95.45;100891.72;5031614;28;21174;-80
2023/09/11 05:46:25;;;;;;;34.43;26.00;;;;;;;18.30;95.44;100889.06;5015247;28;20518;-79
2023/09/11 05:48:55;;;;;;;29.27;26.27;;;;;;;18.44;94.50;100895.88;5023696;28;20493;-78
2023/09/11 05:51:24;;;;;;;34.03;26.30;;;;;;;18.58;92.92;100890.88;5018118;28;20384;-78
2023/09/11 05:53:53;;;;;;;31.20;27.00;;;;;;;18.75;91.67;100896.25;5009007;28;20509;-78
2023/09/11 05:56:23;;;;;;;30.30;25.97;;;;;;;18.91;92.08;100895.38;5013780;28;20418;-80
2023/09/11 05:58:52;;;;;;;28.57;25.77;;;;;;;19.10;91.73;100894.75;5007990;28;20452;-79
2023/09/11 06:01:21;;;;;;;30.73;26.60;;;;;;;19.34;90.17;100892.53;5018279;28;20381;-79
2023/09/11 06:03:52;;;;;;;31.77;25.47;;;;;;;19.48;90.09;100890.22;5012095;28;20417;-81
2023/09/11 06:06:21;;;;;;;30.53;27.23;;;;;;;19.66;89.10;100897.22;5007243;28;20456;-83
2023/09/11 06:08:50;;;;;;;30.30;27.23;;;;;;;19.78;88.60;100901.47;5001262;28;20743;-81
2023/09/11 06:11:20;;;;;;;30.27;27.17;;;;;;;19.92;88.04;100890.84;5005135;28;20443;-80
2023/09/11 06:13:49;;;;;;;30.03;26.60;;;;;;;20.10;86.63;100898.66;5015731;28;20407;-80
2023/09/11 06:16:18;;;;;;;33.53;30.07;;;;;;;20.26;85.88;100905.06;5012729;28;20436;-80
2023/09/11 06:18:47;;;;;;;30.37;27.40;;;;;;;20.41;85.71;100907.13;5015003;28;20433;-80
2023/09/11 06:21:18;;;;;;;30.37;26.87;;;;;;;20.65;84.12;100900.91;5002781;28;20427;-81
2023/09/11 06:23:47;;;;;;;30.90;27.63;;;;;;;20.83;83.56;100903.19;5004441;28;20417;-81
2023/09/11 06:26:17;;;;;;;33.37;29.90;;;;;;;21.07;82.29;100908.19;5012387;28;20467;-81
2023/09/11 06:28:46;;;;;;;31.23;28.00;;;;;;;21.27;81.00;100901.94;5019585;28;20440;-79
2023/09/11 06:31:15;;;;;;;32.03;28.80;;;;;;;21.49;79.69;100905.28;5010738;28;20469;-81
2023/09/11 06:33:45;;;;;;;32.87;29.03;;;;;;;21.56;79.37;100897.56;4993498;28;20428;-83
2023/09/11 06:36:15;;;;;;;31.93;28.80;;;;;;;21.69;79.32;100899.75;4998329;28;20416;-82
2023/09/11 06:38:45;;;;;;;30.13;27.03;;;;;;;21.76;78.06;100907.75;5000557;28;20398;-81
2023/09/11 06:41:14;;;;;;;29.73;25.50;;;;;;;21.95;77.36;100898.69;5006743;28;20431;-82
2023/09/11 06:43:43;;;;;;;29.70;26.47;;;;;;;22.13;77.13;100900.03;5003705;28;20397;-81
2023/09/11 06:46:13;;;;;;;32.93;27.33;;;;;;;22.29;76.32;100900.81;5004587;28;20480;-81
2023/09/11 06:48:42;;;;;;;36.50;28.97;;;;;;;22.48;74.49;100897.19;4996659;28;20971;-80
2023/09/11 06:51:12;;;;;;;28.20;25.33;;;;;;;22.69;72.80;100897.94;5018102;28;20415;-81
2023/09/11 06:53:41;;;;;;;38.97;28.60;;;;;;;22.87;71.34;100902.03;5001743;28;20408;-80
2023/09/11 06:56:12;;;;;;;26.27;23.50;;;;;;;23.05;69.03;100895.00;5002428;28;20756;-79
2023/09/11 06:58:42;;;;;;;29.90;26.90;;;;;;;23.24;67.83;100893.25;4998631;28;20483;-82
2023/09/11 07:01:11;;;;;;;26.23;23.60;;;;;;;23.40;66.41;100897.56;4991758;28;20511;-82
2023/09/11 07:03:41;;;;;;;29.40;26.40;;;;;;;23.40;66.58;100897.56;5002817;28;20961;-82
2023/09/11 07:06:10;;;;;;;30.30;27.33;;;;;;;23.47;65.80;100889.81;5005783;28;20491;-81
2023/09/11 07:08:40;;;;;;;27.47;23.13;;;;;;;23.56;65.43;100899.13;4999325;28;20397;-82
2023/09/11 07:11:11;;;;;;;29.83;24.90;;;;;;;23.72;64.06;100889.59;5003293;28;20400;-82
2023/09/11 07:13:40;;;;;;;28.63;24.30;;;;;;;23.79;63.72;100890.09;4998290;28;20517;-83
2023/09/11 07:16:09;;;;;;;35.80;26.33;;;;;;;23.86;63.30;100888.94;4995276;28;20480;-82
2023/09/11 07:18:38;;;;;;;27.77;24.97;;;;;;;24.01;63.09;100891.56;4994291;28;20439;-81
2023/09/11 07:21:10;;;;;;;27.03;24.33;;;;;;;24.05;63.17;100896.22;4998465;28;20464;-81
2023/09/11 07:23:39;;;;;;;25.20;22.60;;;;;;;24.17;62.93;100893.06;4996475;28;20447;-81
2023/09/11 07:26:08;;;;;;;22.57;20.13;;;;;;;24.27;62.04;100892.97;5001170;28;20448;-82
2023/09/11 07:28:59;;;;;;;22.17;19.97;;;;;;;24.37;61.76;100903.91;4993385;28;20441;-82
2023/09/11 07:31:28;;;;;;;21.43;19.70;;;;;;;24.49;60.36;100890.50;5004690;28;20452;-81
2023/09/11 07:33:58;;;;;;;34.23;22.20;;;;;;;24.68;59.59;100894.13;4997502;28;20443;-81
2023/09/11 07:36:28;;;;;;;20.23;17.00;;;;;;;24.80;59.00;100890.09;5003886;28;20432;-80
2023/09/11 07:38:59;;;;;;;17.93;16.30;;;;;;;24.82;59.02;100901.72;4995483;28;20430;-81
2023/09/11 07:41:29;;;;;;;23.33;17.90;;;;;;;24.99;57.76;100902.06;4992364;28;20465;-81
2023/09/11 07:43:59;;;;;;;21.73;16.10;;;;;;;25.21;55.62;100901.47;4995571;28;20434;-82
2023/09/11 07:46:29;;;;;;;17.33;13.43;;;;;;;25.37;54.60;100902.88;5001914;28;20546;-81
2023/09/11 07:48:59;;;;;;;15.80;14.40;;;;;;;25.63;53.38;100906.09;4999367;28;20469;-82
2023/09/11 07:51:28;;;;;;;15.00;12.97;;;;;;;25.75;53.22;100898.16;5000590;28;20428;-82
2023/09/11 07:53:58;;;;;;;15.80;13.87;;;;;;;25.85;52.88;100903.53;4998609;28;21048;-81
2023/09/11 07:56:29;;;;;;;15.13;12.50;;;;;;;26.02;51.87;100889.91;4993611;28;20450;-82
2023/09/11 07:59:01;;;;;;;15.43;12.70;;;;;;;26.11;52.11;100899.16;4995043;28;20517;-81
2023/09/11 08:05:02;;;;;;;13.07;11.87;;;;;;;26.32;50.69;100896.88;5021855;28;20478;-82
2023/09/11 08:07:32;;;;;;;13.13;12.03;;;;;;;26.42;50.41;100896.66;4995808;28;20493;-82
2023/09/11 08:10:03;;;;;;;13.73;12.40;;;;;;;26.48;50.12;100891.84;5006102;28;20451;-81
2023/09/11 08:12:35;;;;;;;16.83;13.37;;;;;;;26.63;48.91;100891.50;5000480;28;20929;-80
2023/09/11 08:15:08;;;;;;;13.50;11.30;;;;;;;26.67;48.88;100892.56;5004855;28;20448;-83
2023/09/11 08:17:37;;;;;;;15.77;12.47;;;;;;;26.73;48.93;100889.34;5005716;28;20476;-82
2023/09/11 08:20:08;;;;;;;13.87;11.80;;;;;;;26.89;48.06;100889.06;5001499;28;20430;-83
2023/09/11 08:22:39;;;;;;;15.73;11.13;;;;;;;27.15;46.87;100896.50;5005131;28;20500;-82
2023/09/11 08:25:12;;;;;;;13.37;12.00;;;;;;;27.14;46.81;100896.81;5006555;28;20458;-83
2023/09/11 08:27:41;;;;;;;14.27;10.70;;;;;;;27.12;47.15;100887.97;5002393;28;20457;-81
2023/09/11 08:30:13;;;;;;;12.50;11.10;;;;;;;27.16;46.33;100895.34;5004378;28;20439;-83
2023/09/11 08:32:43;;;;;;;13.20;11.30;;;;;;;27.21;47.54;100875.78;5005938;28;20457;-82
2023/09/11 08:35:12;;;;;;;14.77;11.40;;;;;;;27.32;46.84;100881.13;4999426;28;20465;-83
2023/09/11 08:37:42;;;;;;;13.77;11.13;;;;;;;27.52;46.20;100889.00;5006806;28;20456;-82
2023/09/11 08:40:11;;;;;;;19.63;11.50;;;;;;;27.61;46.00;100884.31;5000795;28;20783;-83
2023/09/11 08:42:41;;;;;;;14.53;11.33;;;;;;;27.77;44.92;100876.41;5004683;28;20541;-85
2023/09/11 08:45:10;;;;;;;12.90;11.70;;;;;;;27.78;45.32;100886.41;5009385;28;20489;-83
2023/09/11 08:47:44;;;;;;;11.83;10.83;;;;;;;27.93;44.61;100886.81;5017881;28;20485;-84
2023/09/11 08:50:13;;;;;;;14.43;9.97;;;;;;;27.89;44.16;100883.03;5018835;28;20421;-84
2023/09/11 08:52:43;;;;;;;11.93;10.73;;;;;;;27.83;44.38;100881.53;5016036;28;20462;-84
2023/09/11 08:55:18;;;;;;;16.73;11.40;;;;;;;27.94;44.04;100882.91;5017084;28;20406;-84
2023/09/11 09:14:38;;;;;;;16.30;10.10;;;;;;;28.68;42.32;100887.81;4973700;28;21008;-83
2023/09/11 09:18:04;;;;;;;10.00;9.10;;;;;;;28.82;41.25;100886.59;4992165;28;20473;-83
2023/09/11 09:21:05;;;;;;;11.50;9.70;;;;;;;28.92;40.08;100880.72;5009489;28;20468;-82
2023/09/11 09:23:43;;;;;;;9.60;8.70;;;;;;;29.07;40.26;100873.00;5001737;28;20458;-82
2023/09/11 09:27:12;;;;;;;15.20;10.53;;;;;;;29.10;40.76;100880.72;4995748;28;20472;-83
2023/09/11 09:30:28;;;;;;;12.37;9.83;;;;;;;29.04;40.68;100876.47;5006181;28;20529;-85
2023/09/11 09:33:22;;;;;;;11.03;10.03;;;;;;;29.10;40.49;100875.13;5006100;28;20485;-84
2023/09/11 09:35:54;;;;;;;12.30;10.57;;;;;;;29.24;40.77;100876.63;5010261;28;20451;-84
2023/09/11 09:38:26;;;;;;;12.73;10.47;;;;;;;29.25;40.51;100871.88;5013436;28;20501;-83
2023/09/11 09:40:57;;;;;;;11.70;10.60;;;;;;;29.48;39.80;100867.00;5003973;28;20868;-83
2023/09/11 09:43:28;;;;;;;12.90;11.60;;;;;;;29.56;39.63;100861.41;5000323;28;20453;-84
2023/09/11 09:46:01;;;;;;;12.23;11.03;;;;;;;29.64;38.81;100863.34;5009020;28;20540;-84
2023/09/11 09:48:32;;;;;;;11.17;10.17;;;;;;;29.76;38.72;100857.94;5026423;28;20517;-84
2023/09/11 09:51:04;;;;;;;11.43;10.23;;;;;;;29.84;38.96;100861.00;4998279;28;20441;-84
2023/09/11 09:53:41;;;;;;;13.10;9.10;;;;;;;29.83;38.82;100854.59;4998610;28;20442;-83
2023/09/11 09:56:15;;;;;;;12.20;10.83;;;;;;;29.87;38.68;100843.63;5009820;28;20887;-84
2023/09/11 09:58:47;;;;;;;12.77;11.57;;;;;;;29.95;38.01;100834.44;5002980;28;20524;-84
2023/09/11 10:01:21;;;;;;;11.40;10.20;;;;;;;29.93;38.44;100831.16;5002288;28;20437;-84
2023/09/11 10:03:55;;;;;;;10.40;9.50;;;;;;;29.94;37.93;100827.22;5001992;28;20453;-83
2023/09/11 10:06:28;;;;;;;11.80;10.60;;;;;;;30.10;38.10;100831.09;5002116;28;20557;-84
2023/09/11 10:09:12;;;;;;;17.13;9.67;;;;;;;30.05;38.64;100828.50;5001952;28;20462;-83
2023/09/11 10:11:44;;;;;;;11.33;10.23;;;;;;;30.07;37.49;100826.16;5015758;28;20439;-83
2023/09/11 10:14:19;;;;;;;12.50;11.37;;;;;;;30.18;37.50;100821.88;4996189;28;20492;-84
2023/09/11 10:16:49;;;;;;;13.63;10.53;;;;;;;30.27;38.23;100822.63;4997325;28;20491;-83
2023/09/11 10:19:21;;;;;;;11.30;10.13;;;;;;;30.32;37.94;100810.47;5003362;28;20529;-84
2023/09/11 10:21:51;;;;;;;12.83;11.63;;;;;;;30.39;37.51;100817.16;5011346;28;20436;-82
2023/09/11 10:24:21;;;;;;;12.20;10.10;;;;;;;30.30;38.02;100812.78;5002531;28;20442;-83
2023/09/11 10:27:00;;;;;;;11.40;10.30;;;;;;;30.28;38.04;100810.31;4999840;28;20469;-85
2023/09/11 10:29:49;;;;;;;11.40;9.17;;;;;;;30.37;38.29;100813.06;4998792;28;20461;-84
2023/09/11 10:36:39;;;;;;;18.40;11.00;;;;;;;30.47;37.52;100804.34;4994329;28;20480;-84
2023/09/11 10:39:16;;;;;;;14.50;10.83;;;;;;;30.28;37.88;100804.75;5000240;28;20451;-82
2023/09/11 10:41:58;;;;;;;11.70;10.70;;;;;;;30.06;38.45;100796.66;5028849;28;20454;-84
2023/09/11 10:44:41;;;;;;;12.90;10.73;;;;;;;29.82;39.23;100801.97;5004058;28;21041;-83
2023/09/11 10:47:12;;;;;;;12.23;11.13;;;;;;;29.75;39.31;100794.09;5003500;28;20469;-84
2023/09/11 10:49:43;;;;;;;23.33;11.33;;;;;;;29.73;39.53;100790.81;4997156;28;20466;-84
2023/09/11 10:52:18;;;;;;;11.50;10.43;;;;;;;29.92;39.06;100790.47;5007200;28;20422;-84
2023/09/11 10:54:48;;;;;;;22.43;19.40;;;;;;;30.10;39.19;100792.03;5010623;28;20445;-84
2023/09/11 10:57:24;;;;;;;18.87;15.17;;;;;;;30.39;39.27;100794.00;5012656;28;20489;-84
2023/09/11 10:59:58;;;;;;;11.13;10.03;;;;;;;29.97;38.66;100790.25;5019921;28;20462;-84
2023/09/11 11:02:30;;;;;;;13.07;11.13;;;;;;;29.69;39.04;100785.09;5011447;28;20470;-84
2023/09/11 11:05:00;;;;;;;12.23;10.90;;;;;;;29.64;39.09;100784.44;5000765;28;20453;-83
2023/09/11 11:07:34;;;;;;;12.43;10.10;;;;;;;29.69;38.79;100779.50;5013571;28;20496;-82
2023/09/11 11:10:11;;;;;;;15.20;10.47;;;;;;;29.86;38.41;100775.03;4998721;28;20446;-84
2023/09/11 11:12:42;;;;;;;14.80;10.23;;;;;;;30.04;38.06;100773.84;4997283;28;20480;-85
2023/09/11 11:15:26;;;;;;;10.70;9.80;;;;;;;30.29;38.05;100767.31;4999184;28;20449;-84
2023/09/11 11:18:12;;;;;;;12.77;9.40;;;;;;;30.67;38.23;100769.22;5020679;28;20521;-85
2023/09/11 11:21:05;;;;;;;10.47;9.13;;;;;;;30.77;37.32;100766.00;5007259;28;20837;-83
2023/09/11 11:23:37;;;;;;;12.20;10.03;;;;;;;30.68;37.27;100765.28;5000118;28;20441;-83
2023/09/11 11:26:07;;;;;;;11.13;9.70;;;;;;;30.61;37.55;100765.78;5002617;28;20466;-84
2023/09/11 11:28:42;;;;;;;21.30;11.17;;;;;;;30.71;37.59;100762.59;4992048;28;20465;-83
2023/09/11 11:31:18;;;;;;;11.80;10.70;;;;;;;30.77;37.59;100754.84;4999832;28;20433;-84
2023/09/11 11:33:50;;;;;;;11.00;9.63;;;;;;;30.77;37.52;100752.88;4997958;28;20454;-84
2023/09/11 11:36:59;;;;;;;12.30;8.90;;;;;;;30.67;37.52;100760.84;5005335;28;20489;-86
2023/09/11 11:40:25;;;;;;;11.37;10.37;;;;;;;30.45;37.30;100759.16;5004821;28;20445;-84
2023/09/11 11:42:58;;;;;;;11.73;9.57;;;;;;;30.63;36.99;100764.31;5007608;28;20461;-84
2023/09/11 11:45:28;;;;;;;10.67;9.53;;;;;;;30.40;36.55;100765.75;4999631;28;20455;-83
2023/09/11 11:48:20;;;;;;;10.00;9.07;;;;;;;30.32;36.88;100754.63;4998227;28;20450;-84
2023/09/11 11:50:54;;;;;;;10.33;9.40;;;;;;;30.44;36.65;100752.75;4993935;28;20453;-84
2023/09/11 11:53:25;;;;;;;14.43;9.13;;;;;;;30.39;36.62;100747.38;5003126;28;20524;-84
2023/09/11 11:55:57;;;;;;;13.20;9.37;;;;;;;30.19;36.24;100753.72;5000447;28;20454;-85
2023/09/11 11:58:28;;;;;;;9.57;8.30;;;;;;;30.19;36.05;100756.53;4995778;28;20564;-84
2023/09/11 12:01:00;;;;;;;10.07;8.93;;;;;;;30.31;36.10;100751.03;5009386;28;20432;-84
2023/09/11 12:04:24;;;;;;;10.43;9.47;;;;;;;30.45;36.40;100748.78;5011022;28;20442;-83
2023/09/11 12:07:14;;;;;;;10.17;9.07;;;;;;;30.60;35.76;100751.00;5003437;28;20458;-83
2023/09/11 12:09:43;;;;;;;10.80;8.67;;;;;;;30.73;35.62;100757.50;5012569;28;20457;-83
2023/09/11 12:12:13;;;;;;;11.97;8.73;;;;;;;30.88;35.51;100759.69;5020256;28;20448;-84
2023/09/11 12:14:47;;;;;;;10.00;8.50;;;;;;;31.04;35.75;100754.28;5010786;28;20444;-82